.
WxDataArchive / Data Records for 2010-11-20
2010-11-19 November 2010 2010-11-21

Data Records for Saturday, 20 November 2010

Time	Temp	Chill	HIndex	Humid	Dewpt	 Wind 	HiWind	WindDir	Rain 	Barom 
-----	----	-----	------	-----	-----	------	------	-------	-----	----- 
00:00	38.6	38.6	38.6	89	35.6	0	3	248	0.00	30.121 
00:05	38.5	38.5	38.5	90	35.8	1	4	248	0.00	30.121 
00:10	38.5	38.5	38.5	90	35.8	1	3	248	0.00	30.121 
00:15	38.5	38.5	38.5	90	35.8	1	3	248	0.00	30.121 
00:20	38.3	38.3	38.3	90	35.6	0	3	248	0.00	30.121 
00:25	38.3	38.3	38.3	90	35.6	0	3	248	0.00	30.121 
00:30	38.2	38.2	38.2	90	35.5	1	3	248	0.00	30.126 
00:35	38.2	38.2	38.2	90	35.5	0	3	248	0.00	30.126 
00:40	38.2	38.2	38.2	90	35.5	0	3	248	0.00	30.126 
00:45	38.2	38.2	38.2	90	35.5	1	6	248	0.00	30.133 
00:50	38.3	38.3	38.3	91	35.9	1	3	248	0.00	30.133 
00:55	38.3	38.3	38.3	91	35.9	1	3	248	0.00	30.133 
01:00	38.3	38.3	38.3	91	35.9	1	3	248	0.00	30.135 
01:05	38.3	38.3	38.3	91	35.9	0	3	248	0.00	30.135 
01:10	38.3	38.3	38.3	91	35.9	1	3	248	0.00	30.135 
01:15	38.3	38.3	38.3	91	35.9	1	4	248	0.00	30.137 
01:20	38.5	38.5	38.5	91	36.1	1	5	248	0.00	30.137 
01:25	38.3	38.3	38.3	91	35.9	2	4	225	0.00	30.137 
01:30	38.3	38.3	38.3	91	35.9	1	3	225	0.00	30.136 
01:35	38.2	38.2	38.2	91	35.8	1	4	248	0.00	30.136 
01:40	38.0	38.0	38.0	91	35.6	0	2	248	0.00	30.136 
01:45	38.0	38.0	38.0	91	35.6	1	3	248	0.00	30.142 
01:50	37.9	37.9	37.9	91	35.5	0	3	248	0.00	30.142 
01:55	37.9	37.9	37.9	91	35.5	0	3	248	0.00	30.142 
02:00	37.8	37.8	37.8	91	35.4	0	3	248	0.00	30.149 
02:05	37.8	37.8	37.8	91	35.4	0	3	248	0.00	30.149 
02:10	37.6	37.6	37.6	91	35.2	0	2	248	0.00	30.149 
02:15	37.5	37.5	37.5	91	35.1	0	2	248	0.00	30.150 
02:20	37.5	37.5	37.5	91	35.1	0	1	248	0.00	30.150 
02:25	37.3	37.3	37.3	91	34.9	0	1	248	0.00	30.150 
02:30	37.3	37.3	37.3	92	35.2	0	2	248	0.00	30.150 
02:35	37.3	37.3	37.3	92	35.2	1	3	248	0.00	30.150 
02:40	37.3	37.3	37.3	92	35.2	1	5	248	0.00	30.150 
02:45	37.3	37.3	37.3	92	35.2	1	3	248	0.00	30.151 
02:50	37.5	37.5	37.5	92	35.4	1	3	248	0.00	30.151 
02:55	37.5	37.5	37.5	92	35.4	1	3	248	0.00	30.151 
03:00	37.5	37.5	37.5	92	35.4	1	4	248	0.00	30.150 
03:05	37.5	37.5	37.5	92	35.4	1	3	225	0.00	30.150 
03:10	37.5	37.5	37.5	92	35.4	2	6	270	0.00	30.150 
03:15	37.5	37.5	37.5	92	35.4	1	3	248	0.00	30.152 
03:20	37.6	37.6	37.6	92	35.5	1	4	248	0.00	30.152 
03:25	37.6	37.6	37.6	92	35.5	2	5	270	0.00	30.152 
03:30	37.8	37.8	37.8	92	35.7	2	4	248	0.00	30.154 
03:35	37.8	37.8	37.8	92	35.7	1	6	248	0.00	30.154 
03:40	37.8	37.8	37.8	92	35.7	1	4	248	0.00	30.154 
03:45	37.6	37.6	37.6	92	35.5	0	2	248	0.00	30.159 
03:50	37.6	37.6	37.6	92	35.5	0	2	248	0.00	30.159 
03:55	37.5	37.5	37.5	92	35.4	1	3	248	0.00	30.159 
04:00	37.5	37.5	37.5	92	35.4	0	1	248	0.00	30.166 
04:05	37.3	37.3	37.3	92	35.2	0	3	248	0.00	30.166 
04:10	37.3	37.3	37.3	92	35.2	0	1	248	0.00	30.166 
04:15	37.2	37.2	37.2	92	35.1	0	2	248	0.00	30.169 
04:20	37.3	37.3	37.3	92	35.2	1	4	248	0.00	30.169 
04:25	37.2	37.2	37.2	92	35.1	0	2	248	0.00	30.169 
04:30	37.2	37.2	37.2	92	35.1	0	1	248	0.00	30.170 
04:35	37.0	37.0	37.0	92	34.9	0	0	---	0.00	30.170 
04:40	36.9	36.9	36.9	92	34.8	0	0	---	0.00	30.170 
04:45	36.9	36.9	36.9	93	35.1	0	1	248	0.00	30.174 
04:50	37.0	37.0	37.0	93	35.2	0	2	248	0.00	30.174 
04:55	37.0	37.0	37.0	93	35.2	1	4	248	0.00	30.174 
05:00	37.2	37.2	37.2	93	35.4	0	3	248	0.00	30.181 
05:05	37.2	37.2	37.2	93	35.4	1	4	248	0.00	30.181 
05:10	37.3	37.3	37.3	93	35.5	1	3	248	0.00	30.181 
05:15	37.3	37.3	37.3	93	35.5	0	2	248	0.00	30.183 
05:20	37.3	37.3	37.3	93	35.5	0	2	248	0.00	30.183 
05:25	37.3	37.3	37.3	93	35.5	1	4	248	0.00	30.183 
05:30	37.5	37.5	37.5	93	35.7	1	3	248	0.00	30.192 
05:35	37.5	37.5	37.5	93	35.7	1	4	248	0.00	30.192 
05:40	37.3	37.3	37.3	93	35.5	1	4	248	0.00	30.192 
05:45	37.3	37.3	37.3	93	35.5	0	3	248	0.00	30.197 
05:50	37.2	37.2	37.2	93	35.4	0	1	248	0.00	30.197 
05:55	37.2	37.2	37.2	93	35.4	0	1	248	0.00	30.197 
06:00	37.2	37.2	37.2	93	35.4	0	2	248	0.00	30.199 
06:05	37.2	37.2	37.2	93	35.4	0	0	---	0.00	30.199 
06:10	37.2	37.2	37.2	93	35.4	0	1	248	0.00	30.199 
06:15	37.2	37.2	37.2	93	35.4	1	3	248	0.00	30.207 
06:20	37.3	37.3	37.3	93	35.5	1	2	248	0.00	30.207 
06:25	37.3	37.3	37.3	93	35.5	0	1	248	0.00	30.207 
06:30	37.3	37.3	37.3	93	35.5	0	3	248	0.00	30.213 
06:35	37.3	37.3	37.3	93	35.5	1	4	248	0.00	30.213 
06:40	37.3	37.3	37.3	93	35.5	0	2	248	0.00	30.213 
06:45	37.3	37.3	37.3	93	35.5	0	2	248	0.00	30.216 
06:50	37.3	37.3	37.3	93	35.5	1	3	248	0.00	30.216 
06:55	37.3	37.3	37.3	93	35.5	0	2	248	0.00	30.216 
07:00	37.3	37.3	37.3	93	35.5	0	1	248	0.00	30.221 
07:05	37.3	37.3	37.3	93	35.5	1	3	248	0.00	30.221 
07:10	37.3	37.3	37.3	93	35.5	0	1	248	0.00	30.221 
07:15	37.2	37.2	37.2	93	35.4	0	0	---	0.00	30.230 
07:20	37.2	37.2	37.2	93	35.4	0	1	248	0.00	30.230 
07:25	37.2	37.2	37.2	94	35.6	0	2	248	0.00	30.230 
07:30	37.2	37.2	37.2	94	35.6	0	1	248	0.00	30.231 
07:35	37.2	37.2	37.2	94	35.6	0	2	248	0.00	30.231 
07:40	37.2	37.2	37.2	94	35.6	0	2	248	0.00	30.231 
07:45	37.2	37.2	37.2	94	35.6	0	1	248	0.00	30.235 
07:50	37.2	37.2	37.2	94	35.6	0	2	248	0.00	30.235 
07:55	37.3	37.3	37.3	94	35.7	0	1	248	0.00	30.235 
08:00	37.3	37.3	37.3	94	35.7	0	1	248	0.00	30.243 
08:05	37.3	37.3	37.3	94	35.7	0	1	248	0.00	30.243 
08:10	37.2	37.2	37.2	94	35.6	1	2	248	0.00	30.243 
08:15	37.2	37.2	37.2	94	35.6	0	2	248	0.00	30.250 
08:20	37.0	37.0	37.0	94	35.4	0	2	248	0.00	30.250 
08:25	36.9	36.9	36.9	94	35.3	0	2	248	0.00	30.250 
08:30	36.9	36.9	36.9	94	35.3	1	2	248	0.00	30.251 
08:35	36.9	36.9	36.9	94	35.3	0	2	248	0.00	30.251 
08:40	36.9	36.9	36.9	94	35.3	0	1	248	0.00	30.251 
08:45	36.9	36.9	36.9	94	35.3	0	1	248	0.00	30.263 
08:50	37.0	37.0	37.0	94	35.4	0	1	248	0.00	30.263 
08:55	37.2	37.2	37.2	94	35.6	0	1	248	0.00	30.263 
09:00	37.3	37.3	37.3	94	35.7	0	1	248	0.00	30.265 
09:05	37.6	37.6	37.6	94	36.0	0	1	248	0.00	30.265 
09:10	37.8	37.8	37.8	95	36.5	0	1	248	0.00	30.265 
09:15	38.0	38.0	38.0	95	36.7	0	1	248	0.00	30.264 
09:20	38.2	38.2	38.2	95	36.9	0	0	---	0.00	30.264 
09:25	38.5	38.5	38.5	95	37.2	0	1	248	0.00	30.264 
09:30	38.8	38.8	38.8	95	37.5	0	0	---	0.00	30.272 
09:35	38.9	38.9	38.9	95	37.6	0	1	248	0.00	30.272 
09:40	39.2	39.2	39.2	95	37.9	0	1	248	0.00	30.272 
09:45	39.5	39.5	39.5	95	38.2	0	1	248	0.00	30.277 
09:50	39.9	39.9	39.9	95	38.6	0	1	248	0.00	30.277 
09:55	40.1	40.1	40.1	94	38.5	0	2	248	0.00	30.277 
10:00	40.3	40.3	40.3	94	38.7	0	1	248	0.00	30.277 
10:05	40.6	40.6	40.6	94	39.0	0	1	248	0.00	30.277 
10:10	40.8	40.8	40.8	94	39.2	0	1	248	0.00	30.277 
10:15	41.1	41.1	41.1	94	39.5	0	1	248	0.00	30.276 
10:20	41.3	41.3	41.3	93	39.4	0	1	248	0.00	30.276 
10:25	41.6	41.6	41.6	93	39.7	0	1	248	0.00	30.276 
10:30	41.8	41.8	41.8	92	39.6	0	0	---	0.00	30.278 
10:35	42.1	42.1	42.1	92	39.9	0	0	---	0.00	30.278 
10:40	42.2	42.2	42.2	91	39.8	0	1	248	0.00	30.278 
10:45	42.3	42.3	42.3	90	39.6	0	2	248	0.00	30.277 
10:50	42.3	42.3	42.3	88	39.0	0	1	248	0.00	30.277 
10:55	42.6	42.6	42.6	88	39.3	0	1	248	0.00	30.277 
11:00	43.1	43.1	43.1	86	39.2	0	1	248	0.00	30.274 
11:05	43.3	43.3	43.3	84	38.8	0	1	248	0.00	30.274 
11:10	43.8	43.8	43.8	83	39.0	0	1	248	0.00	30.274 
11:15	44.1	44.1	44.1	82	39.0	0	1	248	0.00	30.275 
11:20	44.3	44.3	44.3	80	38.5	1	3	90	0.00	30.275 
11:25	44.5	44.5	44.5	79	38.4	0	3	90	0.00	30.275 
11:30	44.6	44.6	44.6	77	37.8	1	3	90	0.00	30.273 
11:35	44.8	44.8	44.8	76	37.7	0	2	90	0.00	30.273 
11:40	45.1	45.1	45.1	75	37.7	0	2	90	0.00	30.273 
11:45	45.4	45.4	45.4	74	37.6	0	1	90	0.00	30.271 
11:50	45.7	45.7	45.7	74	37.9	0	1	90	0.00	30.271 
11:55	45.8	45.8	45.8	73	37.6	0	1	90	0.00	30.271 
12:00	46.1	46.1	46.1	72	37.6	0	2	90	0.00	30.262 
12:05	46.2	46.2	46.2	71	37.3	0	3	90	0.00	30.262 
12:10	46.4	46.4	46.4	70	37.2	0	2	90	0.00	30.262 
12:15	46.5	46.5	46.5	68	36.5	0	2	90	0.00	30.258 
12:20	46.7	46.7	46.7	69	37.1	0	3	90	0.00	30.258 
12:25	46.8	46.8	46.8	68	36.8	1	3	90	0.00	30.258 
12:30	47.0	47.0	47.0	68	37.0	0	2	90	0.00	30.258 
12:35	47.3	47.3	47.3	67	36.9	0	2	90	0.00	30.258 
12:40	47.4	47.4	47.4	67	37.0	0	2	90	0.00	30.258 
12:45	47.7	47.7	47.7	67	37.3	0	3	90	0.00	30.251 
12:50	48.0	48.0	48.0	66	37.2	0	1	90	0.00	30.251 
12:55	48.3	48.3	48.3	65	37.1	0	2	90	0.00	30.251 
13:00	48.3	48.3	48.3	65	37.1	0	2	90	0.00	30.251 
13:05	48.3	48.3	48.3	65	37.1	0	2	90	0.00	30.251 
13:10	48.5	48.5	48.5	65	37.3	0	2	90	0.00	30.251 
13:15	48.6	48.6	48.6	65	37.4	0	1	90	0.00	30.247 
13:20	48.8	48.8	48.8	65	37.6	1	4	90	0.00	30.247 
13:25	48.8	48.8	48.8	65	37.6	1	4	90	0.00	30.247 
13:30	48.8	48.8	48.8	65	37.6	1	3	90	0.00	30.246 
13:35	48.9	48.9	48.9	65	37.7	0	1	90	0.00	30.246 
13:40	49.1	49.1	49.1	65	37.8	1	4	90	0.00	30.246 
13:45	49.1	49.1	49.1	65	37.8	1	3	90	0.00	30.250 
13:50	49.2	49.2	49.2	65	37.9	0	2	135	0.00	30.250 
13:55	49.5	49.5	49.5	64	37.8	0	3	135	0.00	30.250 
14:00	49.5	49.5	49.5	63	37.4	1	3	135	0.00	30.246 
14:05	49.5	49.5	49.5	63	37.4	0	2	112	0.00	30.246 
14:10	49.5	49.5	49.5	64	37.8	1	3	135	0.00	30.246 
14:15	49.6	49.6	49.6	62	37.1	0	2	112	0.00	30.242 
14:20	49.8	49.8	49.8	64	38.1	1	3	112	0.00	30.242 
14:25	49.9	49.9	49.9	64	38.2	1	4	112	0.00	30.242 
14:30	49.9	49.9	49.9	65	38.6	0	2	90	0.00	30.243 
14:35	49.9	49.9	49.9	65	38.6	0	2	90	0.00	30.243 
14:40	49.8	49.8	49.8	65	38.5	1	3	90	0.00	30.243 
14:45	49.8	49.8	49.8	66	38.9	0	2	90	0.00	30.251 
14:50	49.8	49.8	49.8	65	38.5	1	4	112	0.00	30.251 
14:55	49.6	49.6	49.6	65	38.3	1	4	112	0.00	30.251 
15:00	49.5	49.5	49.5	66	38.6	1	3	112	0.00	30.248 
15:05	49.5	49.5	49.5	66	38.6	0	3	112	0.00	30.248 
15:10	49.4	49.4	49.4	66	38.5	0	2	112	0.00	30.248 
15:15	49.4	49.4	49.4	67	38.9	1	3	112	0.00	30.254 
15:20	49.5	49.5	49.5	67	39.0	1	4	112	0.00	30.254 
15:25	49.6	49.6	49.6	67	39.1	0	2	112	0.00	30.254 
15:30	49.6	49.6	49.6	67	39.1	1	3	112	0.00	30.255 
15:35	49.5	49.5	49.5	68	39.4	1	3	112	0.00	30.255 
15:40	49.4	49.4	49.4	67	38.9	0	1	112	0.00	30.255 
15:45	49.2	49.2	49.2	67	38.7	0	2	112	0.00	30.259 
15:50	49.1	49.1	49.1	67	38.6	0	2	112	0.00	30.259 
15:55	48.8	48.8	48.8	68	38.7	0	3	112	0.00	30.259 
16:00	48.8	48.8	48.8	68	38.7	0	3	112	0.00	30.260 
16:05	48.6	48.6	48.6	69	38.9	1	2	135	0.00	30.260 
16:10	48.5	48.5	48.5	69	38.8	0	3	135	0.00	30.260 
16:15	48.3	48.3	48.3	69	38.6	0	3	135	0.00	30.271 
16:20	48.2	48.2	48.2	69	38.5	0	2	135	0.00	30.271 
16:25	48.0	48.0	48.0	69	38.3	0	2	135	0.00	30.271 
16:30	47.9	47.9	47.9	70	38.6	0	2	135	0.00	30.267 
16:35	47.6	47.6	47.6	71	38.7	0	1	135	0.00	30.267 
16:40	47.4	47.4	47.4	72	38.8	0	2	135	0.00	30.267 
16:45	47.1	47.1	47.1	73	38.9	0	1	135	0.00	30.272 
16:50	46.8	46.8	46.8	74	39.0	0	1	135	0.00	30.272 
16:55	46.5	46.5	46.5	75	39.0	0	0	---	0.00	30.272 
17:00	46.2	46.2	46.2	76	39.1	0	1	135	0.00	30.275 
17:05	46.0	46.0	46.0	77	39.2	0	2	135	0.00	30.275 
17:10	45.7	45.7	45.7	78	39.2	0	3	135	0.00	30.275 
17:15	45.5	45.5	45.5	78	39.0	0	2	135	0.00	30.273 
17:20	45.2	45.2	45.2	79	39.1	0	2	135	0.00	30.273 
17:25	44.9	44.9	44.9	79	38.8	0	2	135	0.00	30.273 
17:30	44.6	44.6	44.6	80	38.8	0	2	135	0.00	30.270 
17:35	44.5	44.5	44.5	80	38.7	0	2	135	0.00	30.270 
17:40	44.2	44.2	44.2	81	38.7	0	2	135	0.00	30.270 
17:45	43.9	43.9	43.9	81	38.5	0	1	135	0.00	30.272 
17:50	43.6	43.6	43.6	82	38.5	0	0	---	0.00	30.272 
17:55	43.3	43.3	43.3	82	38.2	0	0	---	0.00	30.272 
18:00	43.1	43.1	43.1	83	38.3	0	0	---	0.00	30.275 
18:05	42.8	42.8	42.8	83	38.0	0	0	---	0.00	30.275 
18:10	42.5	42.5	42.5	83	37.7	0	0	---	0.00	30.275 
18:15	42.2	42.2	42.2	84	37.7	0	1	135	0.00	30.274 
18:20	42.1	42.1	42.1	84	37.6	0	0	---	0.00	30.274 
18:25	41.8	41.8	41.8	85	37.6	0	0	---	0.00	30.274 
18:30	41.6	41.6	41.6	85	37.4	0	1	135	0.00	30.267 
18:35	41.5	41.5	41.5	86	37.6	0	0	---	0.00	30.267 
18:40	41.3	41.3	41.3	86	37.4	0	1	135	0.00	30.267 
18:45	41.2	41.2	41.2	86	37.3	0	0	---	0.00	30.272 
18:50	40.9	40.9	40.9	87	37.3	0	0	---	0.00	30.272 
18:55	40.8	40.8	40.8	87	37.2	0	0	---	0.00	30.272 
19:00	40.5	40.5	40.5	87	36.9	0	0	---	0.00	30.276 
19:05	40.3	40.3	40.3	88	37.0	0	0	---	0.00	30.276 
19:10	40.2	40.2	40.2	88	36.9	0	1	135	0.00	30.276 
19:15	40.2	40.2	40.2	88	36.9	0	1	135	0.00	30.280 
19:20	40.3	40.3	40.3	89	37.3	0	2	135	0.00	30.280 
19:25	40.5	40.5	40.5	89	37.5	0	1	135	0.00	30.280 
19:30	40.5	40.5	40.5	89	37.5	0	1	135	0.00	30.279 
19:35	40.6	40.6	40.6	89	37.6	0	1	135	0.00	30.279 
19:40	40.6	40.6	40.6	89	37.6	0	1	135	0.00	30.279 
19:45	40.6	40.6	40.6	90	37.9	0	1	135	0.00	30.279 
19:50	40.5	40.5	40.5	90	37.8	0	1	135	0.00	30.279 
19:55	40.5	40.5	40.5	90	37.8	0	1	135	0.00	30.279 
20:00	40.3	40.3	40.3	90	37.6	0	1	135	0.00	30.281 
20:05	40.3	40.3	40.3	90	37.6	0	2	135	0.00	30.281 
20:10	40.2	40.2	40.2	90	37.5	0	2	135	0.00	30.281 
20:15	40.2	40.2	40.2	90	37.5	0	1	135	0.00	30.280 
20:20	40.3	40.3	40.3	90	37.6	0	2	135	0.00	30.280 
20:25	40.2	40.2	40.2	90	37.5	0	1	135	0.00	30.280 
20:30	40.2	40.2	40.2	90	37.5	0	0	---	0.00	30.282 
20:35	40.1	40.1	40.1	90	37.4	0	1	135	0.00	30.282 
20:40	40.1	40.1	40.1	91	37.7	0	2	135	0.00	30.282 
20:45	40.1	40.1	40.1	91	37.7	0	1	135	0.00	30.279 
20:50	40.1	40.1	40.1	91	37.7	0	1	135	0.00	30.279 
20:55	40.1	40.1	40.1	91	37.7	0	2	135	0.00	30.279 
21:00	40.1	40.1	40.1	91	37.7	0	1	135	0.00	30.279 
21:05	39.8	39.8	39.8	91	37.4	0	0	---	0.00	30.279 
21:10	39.5	39.5	39.5	91	37.1	0	0	---	0.00	30.279 
21:15	39.3	39.3	39.3	91	36.9	0	0	---	0.00	30.277 
21:20	39.2	39.2	39.2	91	36.8	0	0	---	0.00	30.277 
21:25	39.1	39.1	39.1	91	36.7	0	0	---	0.00	30.277 
21:30	38.9	38.9	38.9	92	36.8	0	0	---	0.00	30.278 
21:35	38.8	38.8	38.8	92	36.7	0	0	---	0.00	30.278 
21:40	38.8	38.8	38.8	92	36.7	0	2	135	0.00	30.278 
21:45	38.9	38.9	38.9	92	36.8	0	1	135	0.00	30.277 
21:50	39.1	39.1	39.1	93	37.2	0	1	135	0.00	30.277 
21:55	39.3	39.3	39.3	93	37.4	0	1	135	0.00	30.277 
22:00	39.6	39.6	39.6	93	37.7	1	5	135	0.00	30.273 
22:05	39.9	39.9	39.9	93	38.0	1	3	90	0.00	30.273 
22:10	40.1	40.1	40.1	93	38.2	1	4	90	0.00	30.273 
22:15	40.2	40.2	40.2	93	38.3	1	2	90	0.00	30.275 
22:20	40.2	40.2	40.2	93	38.3	1	3	90	0.00	30.275 
22:25	40.2	40.2	40.2	93	38.3	2	6	90	0.00	30.275 
22:30	40.2	40.2	40.2	93	38.3	2	4	112	0.00	30.273 
22:35	40.2	40.2	40.2	93	38.3	2	6	112	0.00	30.273 
22:40	40.2	40.2	40.2	93	38.3	2	5	90	0.00	30.273 
22:45	40.1	40.1	40.1	93	38.2	1	4	112	0.00	30.278 
22:50	40.1	40.1	40.1	93	38.2	1	5	112	0.00	30.278 
22:55	40.1	40.1	40.1	93	38.2	3	6	90	0.00	30.278 
23:00	40.1	40.1	40.1	93	38.2	3	6	90	0.00	30.270 
23:05	40.1	40.1	40.1	93	38.2	3	6	90	0.00	30.270 
23:10	40.1	40.1	40.1	93	38.2	3	6	90	0.00	30.270 
23:15	40.1	40.1	40.1	93	38.2	2	7	112	0.00	30.261 
23:20	40.2	40.2	40.2	93	38.3	2	6	90	0.00	30.261 
23:25	40.2	40.2	40.2	93	38.3	3	6	90	0.00	30.261 
23:30	40.3	40.3	40.3	93	38.4	3	7	90	0.00	30.265 
23:35	40.3	40.3	40.3	93	38.4	2	6	90	0.00	30.265 
23:40	40.3	40.3	40.3	93	38.4	3	7	90	0.00	30.265 
23:45	40.5	40.5	40.5	93	38.6	3	6	112	0.00	30.262 
23:50	40.5	40.5	40.5	93	38.6	3	7	90	0.00	30.262 
23:55	40.5	40.5	40.5	93	38.6	2	7	90	0.00	30.262 

CoCoRaHS
IN-AL-39
A2 Web Hosting
Creative Commons License
GoDaddy
search engine by freefind advanced

loaded 2018-11-17 19:16:20 • last modified 2010-11-18 10:43:29
Privacy PolicyDisclaimer
• wx.awcolley.com is powered by PmWiki v.2002016 •
• all content (unless otherwise noted) © 2018 A W Colley